Terminal Aerodrome Forecast
Issued by NWS Shreveport, LA

Home | Current Version | Previous Version | Text Only | Print | Product List | Glossary On
Versions: 1 2 3 4 5 6 7 8 9 10 11 12 13 14 15 16 17 18 19 20 21 22 23 24 25 26 27 28 29 30 31
000
FTUS44 KSHV 240608 AAA
TAFLFK
TAF AMD
KLFK 240608Z 2406/2506 16010KT P6SM BKN015
      TEMPO 2409/2413 OVC010
     FM241600 17015G25KT P6SM BKN040
     FM242000 18016G28KT P6SM VCTS BKN050CB
      TEMPO 2421/2501 VRB25G50KT 1SM +TSRA BR OVC050CB
     FM250200 19019G24KT P6SM SCT250=

USA.gov is the U.S. government's official web portal to all federal, state and local government web resources and services.